Airfield :
LOGIN :

Register | Disclaimer

   EN    FR    IT 

 










Legend :    VFR   Marginal VFR   IFR   Intensive IFR   Very Intensive IFR
Visi :
Ceiling :
>= 8 km
>= 3000ft
5 to 8 km
1000 to 3000 ft
1500m to 5 km
500 to 1000 ft
800 to 1500m
200 to 500 ft
< 800m
< 200 ft
Symbols :   Thunderstorms  Fog  Heavy snow  Heavy precipitations  Wind > 20 kt
SIGMETs :     Misc.  Thunderstorms  Icing  Turbulence  Mountain Waves  Volcanic Ashes







- Airport Elevation : 375 ft
- IATA code : MST


EHBK - Maastricht Aachen

CURRENT METAR :
  • 232025Z AUTO 28005KT 230V320 9999 DZRA FEW007 FEW015CB BKN046 09/08 Q1022 BECMG NSW BKN045

EXPIRED METARs :
  • 231955Z AUTO 30004KT 250V340 9999 -DZ FEW045 09/08 Q1021 RERA REDZ NOSIG
  • 231925Z AUTO 30005KT 260V340 9999 -RADZ BKN032 OVC037 09/08 Q1021 NOSIG
  • 231855Z AUTO 31007KT 280V350 9999 -DZ FEW007 OVC035 09/08 Q1020 NOSIG
  • 231825Z AUTO 32008KT 270V010 9999 -RA FEW009 FEW015CB SCT036 09/08 Q1019 REDZ TEMPO BKN009
  • 231755Z AUTO 32007KT 290V360 9999 -RADZ FEW006 SCT008 BKN009 09/08 Q1018 TEMPO BKN009

TAF TAF EHBK
Valid from the 23 at 18:00 until the 25 at 00:00 UTC


231652Z 2318/2424 31008KT 9999 BKN020
TEMPO 2318/2320 7000 RADZ BKN009
PROB40
TEMPO 2319/2322 6000 SHRA SCT025CB
PROB40 2321/2409 6000 BKN005
PROB30 2402/2408 1500 BR BKN002
PROB40
TEMPO 2409/2418 31012G22KT 6000 SHRA SCT020CB
No reported NOTAMs for that airfield.



MET'MAP, your aeronautical weather chart ! - Copyright ORBIFLY December 2007 - Disclaimer

ORBIFLY MET'MAP TEAM :

Programming & Development : Alexandra Zaïnal
Concept & Development : Baudouin d'Aumeries
Co-Development & Prog : Marc-Olivier Méhu
Technical & hardware support : Manuel Goepfert

Contact : metmap@orbifly.com




SOURCES & CREDITS :

   NOAA